createdAt,value
2018-02-14T00:00:40.582Z,0.00
2018-02-14T00:01:40.236Z,0.00
2018-02-14T00:02:40.209Z,0.00
2018-02-14T00:03:40.164Z,0.00
2018-02-14T00:04:40.140Z,0.00
2018-02-14T00:05:40.130Z,0.00
2018-02-14T00:06:40.081Z,0.00
2018-02-14T00:07:40.352Z,0.00
2018-02-14T00:08:40.028Z,0.00
2018-02-14T00:09:40.000Z,0.00
2018-02-14T00:10:39.978Z,0.00
2018-02-14T00:11:39.960Z,0.00
2018-02-14T00:12:39.965Z,0.00
2018-02-14T00:13:39.901Z,0.00
2018-02-14T00:14:40.159Z,0.00
2018-02-14T00:15:39.831Z,0.00
2018-02-14T00:16:39.810Z,0.00
2018-02-14T00:17:39.781Z,0.00
2018-02-14T00:18:39.808Z,0.00
2018-02-14T00:19:39.729Z,0.00
2018-02-14T00:20:39.692Z,0.00
2018-02-14T00:21:39.973Z,0.00
2018-02-14T00:22:39.639Z,0.00
2018-02-14T00:23:39.617Z,0.00
2018-02-14T00:24:39.716Z,0.00
2018-02-14T00:25:39.600Z,0.00
2018-02-14T00:26:39.590Z,0.00
2018-02-14T00:27:39.806Z,0.00
2018-02-14T00:28:39.465Z,0.00
2018-02-14T00:29:39.439Z,0.00
2018-02-14T00:30:39.546Z,0.00
2018-02-14T00:31:39.464Z,0.00
2018-02-14T00:32:39.385Z,0.00
2018-02-14T00:33:39.650Z,0.00
2018-02-14T00:34:39.305Z,0.00
2018-02-14T00:35:39.276Z,0.00
2018-02-14T00:36:39.305Z,0.00
2018-02-14T00:37:39.310Z,0.00
2018-02-14T00:38:39.187Z,0.00
2018-02-14T00:39:39.456Z,0.00
2018-02-14T00:40:39.178Z,0.00
2018-02-14T00:41:39.155Z,0.00
2018-02-14T00:42:39.155Z,0.00
2018-02-14T00:43:39.063Z,0.00
2018-02-14T00:44:39.040Z,0.00
2018-02-14T00:46:39.262Z,0.00
2018-02-14T00:48:38.907Z,0.00
2018-02-14T00:49:38.885Z,0.00
2018-02-14T00:50:38.846Z,0.00
2018-02-14T00:51:38.921Z,0.00
2018-02-14T00:52:39.097Z,0.00
2018-02-14T00:53:38.761Z,0.00
2018-02-14T00:54:38.734Z,0.00
2018-02-14T00:55:38.705Z,0.00
2018-02-14T00:56:38.679Z,0.00
2018-02-14T00:57:38.652Z,0.00
2018-02-14T00:58:38.923Z,0.00
2018-02-14T00:59:38.590Z,0.00
2018-02-14T01:00:38.569Z,0.00
2018-02-14T01:01:38.603Z,0.00
2018-02-14T01:02:38.507Z,0.00
2018-02-14T01:03:38.486Z,0.00
2018-02-14T01:04:38.451Z,0.00
2018-02-14T01:05:38.727Z,0.00
2018-02-14T01:06:38.405Z,0.00
2018-02-14T01:07:38.374Z,0.00
2018-02-14T01:08:38.335Z,0.00
2018-02-14T01:09:38.310Z,0.00
2018-02-14T01:10:38.285Z,0.00
2018-02-14T01:11:38.255Z,0.00
2018-02-14T01:12:38.524Z,0.00
2018-02-14T01:13:38.196Z,0.00
2018-02-14T01:14:38.193Z,0.00
2018-02-14T01:15:38.219Z,0.00
2018-02-14T01:16:38.213Z,0.00
2018-02-14T01:17:38.082Z,0.00
2018-02-14T01:18:38.057Z,0.00
2018-02-14T01:20:38.297Z,0.00
2018-02-14T01:21:38.078Z,0.00
2018-02-14T01:22:37.998Z,0.00
2018-02-14T01:24:37.908Z,0.00
2018-02-14T01:25:37.934Z,0.00
2018-02-14T01:26:37.895Z,0.00
2018-02-14T01:27:38.115Z,0.00
2018-02-14T01:28:37.821Z,0.00
2018-02-14T01:29:37.742Z,0.00
2018-02-14T01:30:37.713Z,0.00
2018-02-14T01:31:37.733Z,0.00
2018-02-14T01:32:37.664Z,0.00
2018-02-14T01:33:37.625Z,0.00
2018-02-14T01:34:37.897Z,0.00
2018-02-14T01:35:37.575Z,0.00
2018-02-14T01:37:37.534Z,0.00
2018-02-14T01:38:37.481Z,0.00
2018-02-14T01:39:37.463Z,0.00
2018-02-14T01:40:37.430Z,0.00
2018-02-14T01:41:37.701Z,0.00
2018-02-14T01:42:37.377Z,0.00
2018-02-14T01:43:37.342Z,0.00
2018-02-14T01:44:37.322Z,0.00
2018-02-14T01:45:37.285Z,0.00
2018-02-14T01:46:37.255Z,0.00
2018-02-14T01:47:37.278Z,0.00
2018-02-14T01:48:37.546Z,0.00
2018-02-14T01:49:37.265Z,0.00
2018-02-14T01:50:37.153Z,0.00
2018-02-14T01:51:37.142Z,0.00
2018-02-14T01:52:37.170Z,0.00
2018-02-14T01:53:37.106Z,0.00
2018-02-14T01:54:37.328Z,0.00
2018-02-14T01:55:36.997Z,0.00
2018-02-14T01:56:37.070Z,0.00
2018-02-14T01:57:36.951Z,0.00
2018-02-14T01:58:36.916Z,0.00
2018-02-14T02:00:37.156Z,0.00
2018-02-14T02:01:36.984Z,0.00
2018-02-14T02:02:36.804Z,0.00
2018-02-14T02:03:36.774Z,0.00
2018-02-14T02:04:36.950Z,0.00
2018-02-14T02:05:36.722Z,0.00
2018-02-14T02:06:36.986Z,0.00
2018-02-14T02:07:36.658Z,0.00
2018-02-14T02:08:36.636Z,0.00
2018-02-14T02:09:36.602Z,0.00
2018-02-14T02:10:36.581Z,0.00
2018-02-14T02:11:36.546Z,0.00
2018-02-14T02:12:36.813Z,0.00
2018-02-14T02:13:36.484Z,0.00
2018-02-14T02:14:36.460Z,0.00
2018-02-14T02:15:36.440Z,0.00
2018-02-14T02:16:36.429Z,0.00
2018-02-14T02:18:36.709Z,0.00
2018-02-14T02:19:36.309Z,0.00
2018-02-14T02:20:36.285Z,0.00
2018-02-14T02:21:36.252Z,0.00
2018-02-14T02:22:36.305Z,0.00
2018-02-14T02:23:36.195Z,0.00
2018-02-14T02:24:36.170Z,0.00
2018-02-14T02:25:36.437Z,0.00
2018-02-14T02:26:36.117Z,0.00
2018-02-14T02:27:36.078Z,0.00
2018-02-14T02:28:36.061Z,0.00
2018-02-14T02:29:36.021Z,0.00
2018-02-14T02:30:35.991Z,0.00
2018-02-14T02:31:35.963Z,0.00
2018-02-14T02:32:36.236Z,0.00
2018-02-14T02:33:35.914Z,0.00
2018-02-14T02:34:35.878Z,0.00
2018-02-14T02:35:35.867Z,0.00
2018-02-14T02:36:35.973Z,0.00
2018-02-14T02:37:35.790Z,0.00
2018-02-14T02:38:35.761Z,0.00
2018-02-14T02:39:36.040Z,0.00
2018-02-14T02:40:35.808Z,0.00
2018-02-14T02:41:35.679Z,0.00
2018-02-14T02:43:35.618Z,0.00
2018-02-14T02:44:35.604Z,0.00
2018-02-14T02:45:35.565Z,0.00
2018-02-14T02:46:35.830Z,0.00
2018-02-14T02:47:35.506Z,0.00
2018-02-14T02:48:35.475Z,0.00
2018-02-14T02:49:35.454Z,0.00
2018-02-14T02:50:35.424Z,0.00
2018-02-14T02:51:35.396Z,0.00
2018-02-14T02:52:35.417Z,0.00
2018-02-14T02:53:35.643Z,0.00
2018-02-14T02:54:35.308Z,0.00
2018-02-14T02:55:35.282Z,0.00
2018-02-14T02:56:35.255Z,0.00
2018-02-14T02:57:35.218Z,0.00
2018-02-14T02:58:35.189Z,0.00
2018-02-14T02:59:35.156Z,0.00
2018-02-14T03:00:35.429Z,0.00
2018-02-14T03:01:35.097Z,0.00
2018-02-14T03:02:35.131Z,0.00
2018-02-14T03:03:35.052Z,0.00
2018-02-14T03:04:35.010Z,0.00
2018-02-14T03:05:34.986Z,0.00
2018-02-14T03:06:34.955Z,0.00
2018-02-14T03:07:35.226Z,0.00
2018-02-14T03:08:34.950Z,0.00
2018-02-14T03:09:34.881Z,0.00
2018-02-14T03:10:34.850Z,0.00
2018-02-14T03:11:34.809Z,0.00
2018-02-14T03:12:34.838Z,0.00
2018-02-14T03:13:35.048Z,0.00
2018-02-14T03:14:34.720Z,0.00
2018-02-14T03:15:34.692Z,0.00
2018-02-14T03:16:34.670Z,0.00
2018-02-14T03:17:34.635Z,0.00
2018-02-14T03:18:34.613Z,0.00
2018-02-14T03:19:34.892Z,0.00
2018-02-14T03:20:34.545Z,0.00
2018-02-14T03:21:34.517Z,0.00
2018-02-14T03:22:34.836Z,0.00
2018-02-14T03:23:34.457Z,0.00
2018-02-14T03:24:34.433Z,0.00
2018-02-14T03:25:34.709Z,0.00
2018-02-14T03:26:34.379Z,0.00
2018-02-14T03:28:34.412Z,0.00
2018-02-14T03:30:34.257Z,0.00
2018-02-14T03:31:34.524Z,0.00
2018-02-14T03:32:34.196Z,0.00
2018-02-14T03:33:34.183Z,0.00
2018-02-14T03:34:34.187Z,0.00
2018-02-14T03:35:34.108Z,0.00
2018-02-14T03:37:34.140Z,0.00
2018-02-14T03:38:34.322Z,0.00
2018-02-14T03:39:33.996Z,0.00
2018-02-14T03:40:34.073Z,0.00
2018-02-14T03:41:33.966Z,0.00
2018-02-14T03:42:33.911Z,0.00
2018-02-14T03:43:33.875Z,0.00
2018-02-14T03:44:33.845Z,0.00
2018-02-14T03:45:34.117Z,0.00
2018-02-14T03:47:33.759Z,0.00
2018-02-14T03:48:33.730Z,0.00
2018-02-14T03:49:33.703Z,0.00
2018-02-14T03:50:33.671Z,0.00
2018-02-14T03:51:33.640Z,0.00
2018-02-14T03:52:33.915Z,0.00
2018-02-14T03:53:33.581Z,0.00
2018-02-14T03:54:33.559Z,0.00
2018-02-14T03:55:33.521Z,0.00
2018-02-14T03:56:33.596Z,0.00
2018-02-14T03:57:33.512Z,0.00
2018-02-14T03:58:33.537Z,0.00
2018-02-14T03:59:33.709Z,0.00
2018-02-14T04:00:33.387Z,0.00
2018-02-14T04:01:33.357Z,0.00
2018-02-14T04:02:33.318Z,0.00
2018-02-14T04:03:33.305Z,0.00
2018-02-14T04:04:33.261Z,0.00
2018-02-14T04:05:33.230Z,0.00
2018-02-14T04:06:33.500Z,0.00
2018-02-14T04:07:33.171Z,0.00
2018-02-14T04:08:33.159Z,0.00
2018-02-14T04:09:33.114Z,0.00
2018-02-14T04:10:33.083Z,0.00
2018-02-14T04:11:33.159Z,0.00
2018-02-14T04:12:33.031Z,0.00
2018-02-14T04:13:33.297Z,0.00
2018-02-14T04:14:32.977Z,0.00
2018-02-14T04:16:32.911Z,0.00
2018-02-14T04:17:32.887Z,0.00
2018-02-14T04:18:32.859Z,0.00
2018-02-14T04:19:32.822Z,0.00
2018-02-14T04:20:33.099Z,0.00
2018-02-14T04:21:32.765Z,0.00
2018-02-14T04:22:32.747Z,0.00
2018-02-14T04:23:32.769Z,0.00
2018-02-14T04:25:32.651Z,0.00
2018-02-14T04:26:32.672Z,0.00
2018-02-14T04:27:32.890Z,0.00
2018-02-14T04:28:32.585Z,0.00
2018-02-14T04:29:32.541Z,0.00
2018-02-14T04:30:32.517Z,0.00
2018-02-14T04:31:32.470Z,0.00
2018-02-14T04:32:32.444Z,0.00
2018-02-14T04:33:32.713Z,0.00
2018-02-14T04:34:32.380Z,0.00
2018-02-14T04:35:32.349Z,0.00
2018-02-14T04:36:32.329Z,0.00
2018-02-14T04:37:32.292Z,0.00
2018-02-14T04:38:32.261Z,0.00
2018-02-14T04:39:32.534Z,0.00
2018-02-14T04:40:32.213Z,0.00
2018-02-14T04:41:32.178Z,0.00
2018-02-14T04:42:32.166Z,0.00
2018-02-14T04:43:32.172Z,0.00
2018-02-14T04:44:32.087Z,0.00
2018-02-14T04:45:32.373Z,0.00
2018-02-14T04:46:32.029Z,0.00
2018-02-14T04:47:32.014Z,0.00
2018-02-14T04:48:31.976Z,0.00
2018-02-14T04:49:31.939Z,0.00
2018-02-14T04:50:31.910Z,0.00
2018-02-14T04:51:32.314Z,0.00
2018-02-14T04:52:31.848Z,0.00
2018-02-14T04:53:31.822Z,0.00
2018-02-14T04:54:31.788Z,0.00
2018-02-14T04:55:31.760Z,0.00
2018-02-14T04:56:31.733Z,0.00
2018-02-14T04:57:32.012Z,0.00
2018-02-14T04:58:31.673Z,0.00
2018-02-14T04:59:31.641Z,0.00
2018-02-14T05:00:31.623Z,0.00
2018-02-14T05:01:31.581Z,0.00
2018-02-14T05:02:31.607Z,0.00
2018-02-14T05:03:31.821Z,0.00
2018-02-14T05:04:31.494Z,0.00
2018-02-14T05:05:31.472Z,0.00
2018-02-14T05:06:31.440Z,0.00
2018-02-14T05:07:31.408Z,0.00
2018-02-14T05:08:31.386Z,0.00
2018-02-14T05:09:31.353Z,0.00
2018-02-14T05:10:31.629Z,0.00
2018-02-14T05:12:31.268Z,0.00
2018-02-14T05:14:31.207Z,0.00
2018-02-14T05:15:31.171Z,0.00
2018-02-14T05:17:31.440Z,0.00
2018-02-14T05:18:31.176Z,0.00
2018-02-14T05:19:31.051Z,0.00
2018-02-14T05:20:31.022Z,0.00
2018-02-14T05:21:30.987Z,0.00
2018-02-14T05:22:31.011Z,0.00
2018-02-14T05:23:30.950Z,0.00
2018-02-14T05:26:31.179Z,0.00
2018-02-14T05:27:30.823Z,0.00
2018-02-14T05:28:30.848Z,0.00
2018-02-14T05:29:30.761Z,0.00
2018-02-14T05:30:30.734Z,0.00
2018-02-14T05:31:30.721Z,0.00
2018-02-14T05:32:30.668Z,0.00
2018-02-14T05:33:30.941Z,0.00
2018-02-14T05:34:30.606Z,0.00
2018-02-14T05:35:30.584Z,0.00
2018-02-14T05:36:30.607Z,0.00
2018-02-14T05:37:30.518Z,0.00
2018-02-14T05:38:30.485Z,0.00
2018-02-14T05:39:30.455Z,0.00
2018-02-14T05:40:30.726Z,0.00
2018-02-14T05:41:30.400Z,0.00
2018-02-14T05:42:30.366Z,0.00
2018-02-14T05:43:30.339Z,0.00
2018-02-14T05:44:30.309Z,0.00
2018-02-14T05:45:30.279Z,0.00
2018-02-14T05:46:30.246Z,0.00
2018-02-14T05:47:30.520Z,0.00
2018-02-14T05:48:30.190Z,0.00
2018-02-14T05:49:30.170Z,0.00
2018-02-14T05:50:30.128Z,0.00
2018-02-14T05:51:30.099Z,0.00
2018-02-14T05:52:30.127Z,0.00
2018-02-14T05:53:30.363Z,0.00
2018-02-14T05:54:30.016Z,0.00
2018-02-14T05:55:29.991Z,0.00
2018-02-14T05:56:30.013Z,0.00
2018-02-14T05:57:29.926Z,0.00
2018-02-14T05:58:29.942Z,0.00
2018-02-14T05:59:30.167Z,0.00
2018-02-14T06:00:29.829Z,0.00
2018-02-14T06:01:29.809Z,0.00
2018-02-14T06:02:29.769Z,0.00
2018-02-14T06:03:29.746Z,0.00
2018-02-14T06:04:29.803Z,0.00
2018-02-14T06:05:29.979Z,4.00
2018-02-14T06:06:29.650Z,4.00
2018-02-14T06:07:29.628Z,0.00
2018-02-14T06:08:29.589Z,4.00
2018-02-14T06:09:29.644Z,4.00
2018-02-14T06:10:29.538Z,4.00
2018-02-14T06:11:29.816Z,8.00
2018-02-14T06:12:29.472Z,4.00
2018-02-14T06:13:29.446Z,4.00
2018-02-14T06:14:29.413Z,8.00
2018-02-14T06:15:29.382Z,8.00
2018-02-14T06:16:29.437Z,12.00
2018-02-14T06:17:29.623Z,12.00
2018-02-14T06:18:29.300Z,16.00
2018-02-14T06:19:29.268Z,16.00
2018-02-14T06:20:29.233Z,20.00
2018-02-14T06:22:29.234Z,28.00
2018-02-14T06:24:29.417Z,36.00
2018-02-14T06:25:29.087Z,44.00
2018-02-14T06:26:29.053Z,52.00
2018-02-14T06:27:29.024Z,56.00
2018-02-14T06:28:29.014Z,64.00
2018-02-14T06:29:28.968Z,76.00
2018-02-14T06:30:28.933Z,80.00
2018-02-14T06:31:29.211Z,92.00
2018-02-14T06:32:29.291Z,100.00
2018-02-14T06:33:28.873Z,116.00
2018-02-14T06:34:28.920Z,124.00
2018-02-14T06:35:28.921Z,140.00
2018-02-14T06:36:28.768Z,156.00
2018-02-14T06:37:28.882Z,168.00
2018-02-14T06:38:29.021Z,184.00
2018-02-14T06:39:28.679Z,204.00
2018-02-14T06:40:28.637Z,216.00
2018-02-14T06:41:28.608Z,236.00
2018-02-14T06:42:28.584Z,252.00
2018-02-14T06:43:28.547Z,272.00
2018-02-14T06:44:28.528Z,296.00
2018-02-14T06:45:28.799Z,320.00
2018-02-14T06:46:28.507Z,336.00
2018-02-14T06:47:28.483Z,364.00
2018-02-14T06:48:28.400Z,384.00
2018-02-14T06:49:28.372Z,408.00
2018-02-14T06:51:28.627Z,460.00
2018-02-14T06:52:28.331Z,484.00
2018-02-14T06:53:28.252Z,508.00
2018-02-14T06:54:28.236Z,532.00
2018-02-14T06:56:28.163Z,588.00
2018-02-14T06:57:28.334Z,612.00
2018-02-14T06:58:28.561Z,640.00
2018-02-14T06:59:28.309Z,668.00
2018-02-14T07:00:28.116Z,692.00
2018-02-14T07:01:28.017Z,724.00
2018-02-14T07:02:28.019Z,752.00
2018-02-14T07:03:28.100Z,780.00
2018-02-14T07:04:27.981Z,816.00
2018-02-14T07:05:28.201Z,848.00
2018-02-14T07:06:27.868Z,872.00
2018-02-14T07:07:27.890Z,900.00
2018-02-14T07:08:27.806Z,956.00
2018-02-14T07:09:27.780Z,1000.00
2018-02-14T07:10:27.748Z,1032.00
2018-02-14T07:11:28.021Z,1036.00
2018-02-14T07:12:33.355Z,1036.00
2018-02-14T07:13:27.831Z,1068.00
2018-02-14T07:14:28.283Z,1104.00
2018-02-14T07:15:27.857Z,1128.00
2018-02-14T07:16:27.822Z,1172.00
2018-02-14T07:17:28.850Z,1204.00
2018-02-14T07:18:27.516Z,1212.00
2018-02-14T07:19:27.487Z,1240.00
2018-02-14T07:20:27.454Z,1268.00
2018-02-14T07:21:27.477Z,1308.00
2018-02-14T07:22:27.395Z,1376.00
2018-02-14T07:23:27.684Z,1432.00
2018-02-14T07:24:27.342Z,1456.00
2018-02-14T07:25:27.311Z,1496.00
2018-02-14T07:26:27.280Z,1520.00
2018-02-14T07:27:27.256Z,1524.00
2018-02-14T07:28:27.227Z,1552.00
2018-02-14T07:29:27.492Z,1640.00
2018-02-14T07:30:27.220Z,1668.00
2018-02-14T07:31:27.195Z,1672.00
2018-02-14T07:32:27.106Z,1720.00
2018-02-14T07:33:27.078Z,1752.00
2018-02-14T07:34:27.127Z,1756.00
2018-02-14T07:35:27.327Z,1792.00
2018-02-14T07:36:26.994Z,1852.00
2018-02-14T07:38:26.937Z,1932.00
2018-02-14T07:39:26.909Z,1984.00
2018-02-14T07:40:26.903Z,2032.00
2018-02-14T07:41:27.156Z,2024.00
2018-02-14T07:42:26.827Z,2052.00
2018-02-14T07:43:26.795Z,2080.00
2018-02-14T07:44:26.769Z,2096.00
2018-02-14T07:45:26.754Z,2136.00
2018-02-14T07:46:26.713Z,2280.00
2018-02-14T07:47:26.690Z,2428.00
2018-02-14T07:48:26.959Z,2488.00
2018-02-14T07:49:26.636Z,2536.00
2018-02-14T07:50:26.611Z,2580.00
2018-02-14T07:51:26.582Z,2624.00
2018-02-14T07:52:26.560Z,2656.00
2018-02-14T07:53:26.531Z,2692.00
2018-02-14T07:54:26.501Z,2728.00
2018-02-14T07:55:26.771Z,2764.00
2018-02-14T07:56:26.449Z,2804.00
2018-02-14T07:57:26.427Z,2840.00
2018-02-14T07:58:26.392Z,2868.00
2018-02-14T07:59:26.370Z,2904.00
2018-02-14T08:00:26.344Z,2948.00
2018-02-14T08:01:26.371Z,2996.00
2018-02-14T08:02:26.603Z,3040.00
2018-02-14T08:03:26.280Z,3076.00
2018-02-14T08:04:26.257Z,3112.00
2018-02-14T08:05:26.222Z,3152.00
2018-02-14T08:06:26.199Z,3196.00
2018-02-14T08:07:26.174Z,3232.00
2018-02-14T08:08:26.149Z,3272.00
2018-02-14T08:09:26.430Z,3304.00
2018-02-14T08:10:26.201Z,3332.00
2018-02-14T08:11:26.154Z,3376.00
2018-02-14T08:12:26.060Z,3424.00
2018-02-14T08:13:26.043Z,3460.00
2018-02-14T08:14:26.028Z,3492.00
2018-02-14T08:16:26.269Z,3568.00
2018-02-14T08:17:25.945Z,3604.00
2018-02-14T08:18:25.919Z,3640.00
2018-02-14T08:19:25.897Z,3688.00
2018-02-14T08:20:25.879Z,3736.00
2018-02-14T08:21:25.903Z,3772.00
2018-02-14T08:22:25.833Z,3812.00
2018-02-14T08:23:26.111Z,3848.00
2018-02-14T08:24:25.789Z,3888.00
2018-02-14T08:25:25.766Z,3924.00
2018-02-14T08:26:25.746Z,3976.00
2018-02-14T08:27:25.783Z,4024.00
2018-02-14T08:28:25.706Z,4084.00
2018-02-14T08:29:25.985Z,4112.00
2018-02-14T08:30:25.661Z,4168.00
2018-02-14T08:31:25.642Z,4216.00
2018-02-14T08:32:25.639Z,4268.00
2018-02-14T08:33:25.607Z,4320.00
2018-02-14T08:34:25.589Z,4364.00
2018-02-14T08:35:25.862Z,4412.00
2018-02-14T08:36:25.572Z,4480.00
2018-02-14T08:37:25.532Z,4528.00
2018-02-14T08:38:25.506Z,4584.00
2018-02-14T08:39:25.487Z,4632.00
2018-02-14T08:40:25.471Z,4688.00
2018-02-14T08:41:25.748Z,4732.00
2018-02-14T08:42:25.431Z,4780.00
2018-02-14T08:43:25.413Z,4820.00
2018-02-14T08:44:25.395Z,4852.00
2018-02-14T08:45:25.380Z,4884.00
2018-02-14T08:46:25.403Z,4900.00
2018-02-14T08:47:25.652Z,4948.00
2018-02-14T08:48:25.325Z,4972.00
2018-02-14T08:49:25.309Z,5020.00
2018-02-14T08:50:25.282Z,5056.00
2018-02-14T08:51:25.267Z,5100.00
2018-02-14T08:52:25.256Z,5140.00
2018-02-14T08:53:25.531Z,5188.00
2018-02-14T08:54:25.214Z,5232.00
2018-02-14T08:55:25.199Z,5292.00
2018-02-14T08:56:25.176Z,5324.00
2018-02-14T08:57:25.171Z,5376.00
2018-02-14T08:58:25.144Z,5412.00
2018-02-14T08:59:25.426Z,5456.00
2018-02-14T09:00:25.114Z,5492.00
2018-02-14T09:01:25.141Z,5524.00
2018-02-14T09:03:25.061Z,5588.00
2018-02-14T09:04:25.055Z,5624.00
2018-02-14T09:05:25.340Z,5668.00
2018-02-14T09:06:25.033Z,5708.00
2018-02-14T09:07:25.055Z,5752.00
2018-02-14T09:08:24.991Z,5808.00
2018-02-14T09:09:24.994Z,5872.00
2018-02-14T09:10:24.961Z,5940.00
2018-02-14T09:11:24.946Z,6008.00
2018-02-14T09:12:25.221Z,6064.00
2018-02-14T09:13:24.904Z,6136.00
2018-02-14T09:14:24.894Z,6212.00
2018-02-14T09:15:24.874Z,6284.00
2018-02-14T09:16:24.862Z,6340.00
2018-02-14T09:17:24.849Z,6424.00
2018-02-14T09:18:24.843Z,6528.00
2018-02-14T09:19:25.120Z,6628.00
2018-02-14T09:20:24.809Z,6676.00
2018-02-14T09:21:24.790Z,6736.00
2018-02-14T09:22:24.774Z,6788.00
2018-02-14T09:23:24.764Z,6884.00
2018-02-14T09:24:24.752Z,7008.00
2018-02-14T09:25:24.744Z,7140.00
2018-02-14T09:26:25.024Z,7284.00
2018-02-14T09:27:24.706Z,7500.00
2018-02-14T09:28:24.701Z,7816.00
2018-02-14T09:29:24.678Z,8248.00
2018-02-14T09:30:24.673Z,8804.00
2018-02-14T09:31:24.655Z,9376.00
2018-02-14T09:32:24.637Z,10032.00
2018-02-14T09:33:24.928Z,10732.00
2018-02-14T09:34:24.617Z,11252.00
2018-02-14T09:35:24.611Z,11912.00
2018-02-14T09:36:24.636Z,12852.00
2018-02-14T09:37:24.574Z,14464.00
2018-02-14T09:38:24.585Z,16288.00
2018-02-14T09:39:24.553Z,18496.00
2018-02-14T09:40:24.967Z,21408.00
2018-02-14T09:41:24.633Z,23392.00
2018-02-14T09:42:24.652Z,23584.00
2018-02-14T09:43:24.499Z,22944.00
2018-02-14T09:44:24.489Z,21888.00
2018-02-14T09:45:24.478Z,21088.00
2018-02-14T09:46:24.467Z,19392.00
2018-02-14T09:47:24.757Z,17728.00
2018-02-14T09:48:24.435Z,16608.00
2018-02-14T09:49:24.426Z,15616.00
2018-02-14T09:50:24.462Z,14624.00
2018-02-14T09:51:24.402Z,13536.00
2018-02-14T09:52:24.405Z,12696.00
2018-02-14T09:53:24.656Z,12268.00
2018-02-14T09:54:24.684Z,11928.00
2018-02-14T09:55:24.352Z,11520.00
2018-02-14T09:56:24.345Z,11172.00
2018-02-14T09:57:24.329Z,10896.00
2018-02-14T09:58:24.319Z,10576.00
2018-02-14T09:59:24.320Z,10268.00
2018-02-14T10:00:24.597Z,9952.00
2018-02-14T10:01:24.296Z,9648.00
2018-02-14T10:02:24.284Z,9428.00
2018-02-14T10:03:24.268Z,9280.00
2018-02-14T10:04:24.253Z,9156.00
2018-02-14T10:05:24.241Z,9108.00
2018-02-14T10:06:24.630Z,9036.00
2018-02-14T10:07:24.218Z,9028.00
2018-02-14T10:08:24.211Z,9056.00
2018-02-14T10:09:24.373Z,9048.00
2018-02-14T10:10:24.205Z,9072.00
2018-02-14T10:11:24.194Z,9080.00
2018-02-14T10:12:24.483Z,9116.00
2018-02-14T10:13:24.162Z,9164.00
2018-02-14T10:14:24.139Z,9228.00
2018-02-14T10:15:24.126Z,9240.00
2018-02-14T10:16:24.165Z,9236.00
2018-02-14T10:17:24.111Z,9288.00
2018-02-14T10:18:24.096Z,9304.00
2018-02-14T10:19:24.089Z,9312.00
2018-02-14T10:20:24.077Z,9352.00
2018-02-14T10:21:24.065Z,9460.00
2018-02-14T10:22:24.096Z,9492.00
2018-02-14T10:23:24.041Z,9456.00
2018-02-14T10:24:24.331Z,9484.00
2018-02-14T10:25:24.015Z,9528.00
2018-02-14T10:26:24.009Z,9524.00
2018-02-14T10:27:24.004Z,9584.00
2018-02-14T10:28:24.023Z,9600.00
2018-02-14T10:29:23.969Z,9696.00
2018-02-14T10:30:24.271Z,9756.00
2018-02-14T10:31:23.996Z,9760.00
2018-02-14T10:32:23.947Z,9768.00
2018-02-14T10:33:23.939Z,9852.00
2018-02-14T10:34:23.945Z,9932.00
2018-02-14T10:35:23.899Z,9968.00
2018-02-14T10:36:24.189Z,10080.00
2018-02-14T10:37:23.879Z,10236.00
2018-02-14T10:38:23.868Z,10488.00
2018-02-14T10:39:23.869Z,10788.00
2018-02-14T10:40:23.841Z,10940.00
2018-02-14T10:41:23.879Z,11012.00
2018-02-14T10:42:23.827Z,11260.00
2018-02-14T10:43:24.105Z,11436.00
2018-02-14T10:44:23.792Z,11508.00
2018-02-14T10:45:23.789Z,11368.00
2018-02-14T10:46:24.138Z,11368.00
2018-02-14T10:47:23.767Z,11352.00
2018-02-14T10:48:23.747Z,11364.00
2018-02-14T10:49:23.772Z,11356.00
2018-02-14T10:50:24.022Z,11460.00
2018-02-14T10:51:23.714Z,11484.00
2018-02-14T10:52:23.709Z,11604.00
2018-02-14T10:53:23.688Z,11664.00
2018-02-14T10:54:23.682Z,11920.00
2018-02-14T10:55:23.665Z,12860.00
2018-02-14T10:56:23.708Z,14880.00
2018-02-14T10:57:23.945Z,18400.00
2018-02-14T10:58:23.639Z,21856.00
2018-02-14T10:59:23.617Z,25184.00
2018-02-14T11:00:23.607Z,29632.00
2018-02-14T11:01:23.603Z,32992.00
2018-02-14T11:02:23.590Z,37024.00
2018-02-14T11:03:23.582Z,40192.00
2018-02-14T11:04:23.868Z,41440.00
2018-02-14T11:05:23.555Z,40320.00
2018-02-14T11:06:23.541Z,38112.00
2018-02-14T11:08:23.519Z,32032.00
2018-02-14T11:09:23.508Z,29088.00
2018-02-14T11:10:23.496Z,27456.00
2018-02-14T11:11:23.782Z,26720.00
2018-02-14T11:12:23.472Z,26592.00
2018-02-14T11:13:23.461Z,26688.00
2018-02-14T11:14:23.452Z,27232.00
2018-02-14T11:15:23.436Z,28288.00
2018-02-14T11:16:23.437Z,29856.00
2018-02-14T11:17:23.606Z,29888.00
2018-02-14T11:18:23.710Z,30016.00
2018-02-14T11:19:23.409Z,32128.00
2018-02-14T11:20:23.393Z,32992.00
2018-02-14T11:21:23.373Z,31040.00
2018-02-14T11:22:23.384Z,30080.00
2018-02-14T11:23:23.348Z,30656.00
2018-02-14T11:24:23.338Z,31008.00
2018-02-14T11:25:23.626Z,31168.00
2018-02-14T11:26:23.312Z,31936.00
2018-02-14T11:27:23.308Z,32384.00
2018-02-14T11:29:23.279Z,33408.00
2018-02-14T11:30:23.262Z,33344.00
2018-02-14T11:31:23.558Z,34368.00
2018-02-14T11:32:23.240Z,34208.00
2018-02-14T11:33:23.233Z,33856.00
2018-02-14T11:34:23.223Z,35424.00
2018-02-14T11:35:23.369Z,36352.00
2018-02-14T11:36:23.200Z,34976.00
2018-02-14T11:37:23.491Z,34080.00
2018-02-14T11:38:23.171Z,34048.00
2018-02-14T11:39:23.171Z,34336.00
2018-02-14T11:40:23.197Z,34176.00
2018-02-14T11:41:23.160Z,34304.00
2018-02-14T11:42:23.129Z,33984.00
2018-02-14T11:43:23.411Z,33184.00
2018-02-14T11:44:23.101Z,33504.00
2018-02-14T11:45:23.090Z,33696.00
2018-02-14T11:46:23.223Z,32896.00
2018-02-14T11:47:23.076Z,31872.00
2018-02-14T11:48:23.052Z,31392.00
2018-02-14T11:49:23.392Z,31232.00
2018-02-14T11:50:23.035Z,31296.00
2018-02-14T11:51:23.017Z,31840.00
2018-02-14T11:52:23.217Z,32416.00
2018-02-14T11:53:23.056Z,33152.00
2018-02-14T11:54:22.986Z,33056.00
2018-02-14T11:55:23.282Z,32736.00
2018-02-14T11:56:22.961Z,31616.00
2018-02-14T11:57:22.953Z,31296.00
2018-02-14T11:58:22.941Z,32032.00
2018-02-14T11:59:22.929Z,32640.00
2018-02-14T12:00:22.919Z,31936.00
2018-02-14T12:01:23.248Z,32160.00
2018-02-14T12:02:23.047Z,32320.00
2018-02-14T12:03:22.885Z,31904.00
2018-02-14T12:04:22.877Z,31808.00
2018-02-14T12:05:22.871Z,30624.00
2018-02-14T12:06:22.854Z,29312.00
2018-02-14T12:07:22.843Z,29344.00
2018-02-14T12:09:22.827Z,29344.00
2018-02-14T12:10:22.818Z,28480.00
2018-02-14T12:11:22.797Z,28160.00
2018-02-14T12:12:22.788Z,27168.00
2018-02-14T12:13:23.079Z,26688.00
2018-02-14T12:14:22.763Z,26272.00
2018-02-14T12:15:22.759Z,26208.00
2018-02-14T12:16:22.740Z,25408.00
2018-02-14T12:17:22.734Z,23840.00
2018-02-14T12:18:22.719Z,23936.00
2018-02-14T12:19:22.723Z,24736.00
2018-02-14T12:20:23.367Z,24288.00
2018-02-14T12:23:55.877Z,22848.00
2018-02-14T12:24:22.658Z,22848.00
2018-02-14T12:25:22.823Z,23072.00
2018-02-14T12:26:22.629Z,23392.00
2018-02-14T12:27:22.975Z,24128.00
2018-02-14T12:28:27.013Z,23904.00
2018-02-14T12:29:55.835Z,23168.00
2018-02-14T12:30:22.598Z,22336.00
2018-02-14T12:31:22.609Z,21824.00
2018-02-14T12:32:23.224Z,20672.00
2018-02-14T12:33:22.552Z,20096.00
2018-02-14T12:34:22.840Z,20352.00
2018-02-14T12:35:22.540Z,20832.00
2018-02-14T12:36:22.521Z,21056.00
2018-02-14T12:37:22.513Z,20672.00
2018-02-14T12:38:22.545Z,20512.00
2018-02-14T12:39:22.560Z,20928.00
2018-02-14T12:40:22.488Z,21184.00
2018-02-14T12:41:22.774Z,21312.00
2018-02-14T12:42:22.449Z,20768.00
2018-02-14T12:44:22.432Z,20480.00
2018-02-14T12:45:22.451Z,20256.00
2018-02-14T12:46:22.456Z,20128.00
2018-02-14T12:47:22.464Z,19904.00
2018-02-14T12:48:55.901Z,19744.00
2018-02-14T12:49:22.366Z,19552.00
2018-02-14T12:50:22.352Z,17856.00
2018-02-14T12:51:22.423Z,14592.00
2018-02-14T12:52:22.387Z,12328.00
2018-02-14T12:53:22.322Z,12168.00
2018-02-14T12:54:22.311Z,11980.00
2018-02-14T12:55:22.678Z,12020.00
2018-02-14T12:56:22.899Z,12256.00
2018-02-14T12:57:22.286Z,12032.00
2018-02-14T12:58:22.280Z,11848.00
2018-02-14T12:59:22.256Z,11684.00
2018-02-14T13:00:22.242Z,11652.00
2018-02-14T13:01:22.291Z,11528.00
2018-02-14T13:02:22.523Z,11488.00
2018-02-14T13:03:22.825Z,11496.00
2018-02-14T13:04:22.245Z,11428.00
2018-02-14T13:05:22.188Z,11264.00
2018-02-14T13:06:22.177Z,11364.00